Time;durP1;ratioP1;P1;durP2;ratioP2;P2;SDS_P1;SDS_P2;PMS_P1;PMS_P2;Temp;Humidity;BMP_temperature;BMP_pressure;BME280_temperature;BME280_humidity;BME280_pressure;Samples;Min_cycle;Max_cycle;Signal;HPM_P1;HPM_P2
2022/08/31 00:04:59;;;;;;;3.85;0.68;;;;;;;;;;5061319;28;20059;-65
2022/08/31 00:07:27;;;;;;;0.52;0.50;;;;;;;;;;5052981;28;20044;-65
2022/08/31 00:09:55;;;;;;;4.90;0.82;;;;;;;;;;5055342;28;20136;-65
2022/08/31 00:12:23;;;;;;;1.20;0.70;;;;;;;;;;5062392;28;20093;-65
2022/08/31 00:14:50;;;;;;;1.27;0.65;;;;;;;;;;5067469;28;20052;-65
2022/08/31 00:17:17;;;;;;;1.90;0.90;;;;;;;;;;5057578;28;20049;-65
2022/08/31 00:19:44;;;;;;;2.65;0.70;;;;;;;;;;5059638;28;20101;-65
2022/08/31 00:22:12;;;;;;;1.73;0.70;;;;;;;;;;5039347;28;20060;-65
2022/08/31 00:24:39;;;;;;;1.20;0.50;;;;;;;;;;5057816;28;20509;-65
2022/08/31 00:27:07;;;;;;;1.17;0.60;;;;;;;;;;5039397;28;20063;-65
2022/08/31 00:29:35;;;;;;;3.45;0.55;;;;;;;;;;5057634;28;20043;-65
2022/08/31 00:32:02;;;;;;;2.40;0.60;;;;;;;;;;5055995;28;20110;-65
2022/08/31 00:34:29;;;;;;;2.50;0.50;;;;;;;;;;5055793;28;20114;-65
2022/08/31 00:36:58;;;;;;;3.75;0.60;;;;;;;;;;5060961;28;20515;-65
2022/08/31 00:39:25;;;;;;;3.75;0.50;;;;;;;;;;5037321;28;20044;-65
2022/08/31 00:41:53;;;;;;;1.73;0.90;;;;;;;;;;5057191;28;20055;-65
2022/08/31 00:44:21;;;;;;;2.25;0.50;;;;;;;;;;5056644;28;20126;-65
2022/08/31 00:46:48;;;;;;;1.30;0.57;;;;;;;;;;5038383;28;20468;-65
2022/08/31 00:49:17;;;;;;;2.28;0.70;;;;;;;;;;5057176;28;20045;-65
2022/08/31 00:51:47;;;;;;;1.42;0.60;;;;;;;;;;5050653;28;20098;-65
2022/08/31 00:54:15;;;;;;;1.52;0.70;;;;;;;;;;5057836;28;20056;-65
2022/08/31 00:56:44;;;;;;;3.67;0.70;;;;;;;;;;5050693;28;20044;-65
2022/08/31 00:59:11;;;;;;;4.53;0.82;;;;;;;;;;5055287;28;20115;-65
2022/08/31 01:01:40;;;;;;;5.15;0.60;;;;;;;;;;5037009;28;20068;-65
2022/08/31 01:04:07;;;;;;;2.90;0.57;;;;;;;;;;5057133;28;20037;-65
2022/08/31 01:06:35;;;;;;;2.55;0.73;;;;;;;;;;5042780;28;20049;-65
2022/08/31 01:09:03;;;;;;;3.30;0.73;;;;;;;;;;5058608;28;20057;-65
2022/08/31 01:11:30;;;;;;;1.02;0.57;;;;;;;;;;5068745;28;20135;-65
2022/08/31 01:13:57;;;;;;;0.90;0.50;;;;;;;;;;5057657;28;20056;-65
2022/08/31 01:16:26;;;;;;;3.17;0.70;;;;;;;;;;5045976;28;20151;-65
2022/08/31 01:18:57;;;;;;;4.18;0.50;;;;;;;;;;5064607;28;20052;-65
2022/08/31 01:21:27;;;;;;;1.88;0.52;;;;;;;;;;5061964;28;20049;-65
2022/08/31 01:23:57;;;;;;;1.30;0.60;;;;;;;;;;5059791;28;20052;-65
2022/08/31 01:26:25;;;;;;;0.95;0.50;;;;;;;;;;5062157;28;20049;-65
2022/08/31 01:28:56;;;;;;;1.50;0.50;;;;;;;;;;5061072;28;20106;-65
2022/08/31 01:31:25;;;;;;;0.98;0.50;;;;;;;;;;5042257;28;20059;-65
2022/08/31 01:33:52;;;;;;;5.03;0.60;;;;;;;;;;5056892;28;20053;-65
2022/08/31 01:36:20;;;;;;;4.55;0.60;;;;;;;;;;5061258;28;20056;-65
2022/08/31 01:38:48;;;;;;;3.97;0.68;;;;;;;;;;5059363;28;20051;-65
2022/08/31 01:41:16;;;;;;;1.15;0.60;;;;;;;;;;5065910;28;20049;-65
2022/08/31 01:43:43;;;;;;;4.50;0.77;;;;;;;;;;5062521;28;20106;-65
2022/08/31 01:46:12;;;;;;;1.08;0.60;;;;;;;;;;5059869;28;20044;-64
2022/08/31 01:48:40;;;;;;;1.75;0.60;;;;;;;;;;5037739;28;20511;-65
2022/08/31 01:51:08;;;;;;;1.02;0.65;;;;;;;;;;5061759;28;20037;-65
2022/08/31 01:53:35;;;;;;;0.80;0.60;;;;;;;;;;5060454;28;20110;-65
2022/08/31 01:56:02;;;;;;;3.55;0.52;;;;;;;;;;5060083;28;20083;-65
2022/08/31 01:58:31;;;;;;;1.20;0.63;;;;;;;;;;5036092;28;20061;-65
2022/08/31 02:00:59;;;;;;;0.70;0.40;;;;;;;;;;5059269;28;20044;-65
2022/08/31 02:03:26;;;;;;;0.90;0.40;;;;;;;;;;5063852;28;20053;-65
2022/08/31 02:05:54;;;;;;;1.65;0.50;;;;;;;;;;5059191;28;21415;-65
2022/08/31 02:08:21;;;;;;;2.13;0.82;;;;;;;;;;5041357;28;20048;-65
2022/08/31 02:10:49;;;;;;;4.32;0.43;;;;;;;;;;5057002;28;20041;-65
2022/08/31 02:13:16;;;;;;;3.25;0.47;;;;;;;;;;5061580;28;20525;-65
2022/08/31 02:15:45;;;;;;;3.85;0.60;;;;;;;;;;5059018;28;20045;-65
2022/08/31 02:18:12;;;;;;;0.77;0.50;;;;;;;;;;5064386;28;20056;-65
2022/08/31 02:20:39;;;;;;;0.93;0.40;;;;;;;;;;5062210;28;20053;-65
2022/08/31 02:23:06;;;;;;;0.95;0.50;;;;;;;;;;5053890;28;20041;-65
2022/08/31 02:25:33;;;;;;;3.28;0.38;;;;;;;;;;5063631;28;20052;-65
2022/08/31 02:28:01;;;;;;;1.67;0.50;;;;;;;;;;5063475;28;20052;-65
2022/08/31 02:30:28;;;;;;;1.80;0.50;;;;;;;;;;5056771;28;20044;-65
2022/08/31 02:32:57;;;;;;;0.75;0.50;;;;;;;;;;5058416;28;20563;-65
2022/08/31 02:35:24;;;;;;;1.35;0.60;;;;;;;;;;5065104;28;20083;-65
2022/08/31 02:37:51;;;;;;;1.02;0.50;;;;;;;;;;5059947;28;20055;-65
2022/08/31 02:40:18;;;;;;;3.33;0.70;;;;;;;;;;5057601;28;20095;-65
2022/08/31 02:42:46;;;;;;;1.40;0.45;;;;;;;;;;5064804;28;20056;-65
2022/08/31 02:45:13;;;;;;;0.40;0.40;;;;;;;;;;5035401;28;20118;-65
2022/08/31 02:47:40;;;;;;;3.80;0.63;;;;;;;;;;5058082;28;20056;-65
2022/08/31 02:50:09;;;;;;;4.50;0.60;;;;;;;;;;5055663;28;20114;-65
2022/08/31 02:52:37;;;;;;;1.27;0.60;;;;;;;;;;5055522;28;20488;-65
2022/08/31 02:55:04;;;;;;;2.10;0.57;;;;;;;;;;5057505;28;20053;-65
2022/08/31 02:57:31;;;;;;;3.63;0.65;;;;;;;;;;5053037;28;20055;-65
2022/08/31 02:59:59;;;;;;;0.82;0.55;;;;;;;;;;5058494;28;20462;-65
2022/08/31 03:02:26;;;;;;;0.40;0.40;;;;;;;;;;5057052;28;20688;-65
2022/08/31 03:04:53;;;;;;;0.77;0.35;;;;;;;;;;5051072;28;20047;-65
2022/08/31 03:07:22;;;;;;;1.67;0.47;;;;;;;;;;5059527;28;20048;-65
2022/08/31 03:09:49;;;;;;;0.80;0.50;;;;;;;;;;5059159;28;20047;-65
2022/08/31 03:12:16;;;;;;;1.77;0.57;;;;;;;;;;5064602;28;20058;-65
2022/08/31 03:14:43;;;;;;;2.95;0.60;;;;;;;;;;5054866;28;20052;-65
2022/08/31 03:17:10;;;;;;;2.58;0.47;;;;;;;;;;5050098;28;20098;-65
2022/08/31 03:19:37;;;;;;;1.70;0.60;;;;;;;;;;5052480;28;20059;-65
2022/08/31 03:22:05;;;;;;;4.50;0.50;;;;;;;;;;5037860;28;20103;-65
2022/08/31 03:24:33;;;;;;;4.43;0.55;;;;;;;;;;5039388;28;20653;-64
2022/08/31 03:27:01;;;;;;;1.02;0.57;;;;;;;;;;5054318;28;20053;-65
2022/08/31 03:29:28;;;;;;;1.70;0.52;;;;;;;;;;5057508;28;20052;-65
2022/08/31 03:31:55;;;;;;;2.90;0.50;;;;;;;;;;5039812;28;20045;-65
2022/08/31 03:34:22;;;;;;;0.73;0.32;;;;;;;;;;5041391;28;20267;-65
2022/08/31 03:36:49;;;;;;;1.45;0.43;;;;;;;;;;5061374;28;20504;-65
2022/08/31 03:39:17;;;;;;;0.40;0.40;;;;;;;;;;5063794;28;20461;-65
2022/08/31 03:41:45;;;;;;;0.98;0.55;;;;;;;;;;5055246;28;20052;-65
2022/08/31 03:44:12;;;;;;;1.40;0.73;;;;;;;;;;5059453;28;20663;-65
2022/08/31 03:46:44;;;;;;;2.83;0.77;;;;;;;;;;5053373;28;20057;-64
2022/08/31 03:49:12;;;;;;;1.52;0.52;;;;;;;;;;5059733;28;20052;-65
2022/08/31 03:51:39;;;;;;;0.50;0.40;;;;;;;;;;5062742;28;20048;-64
2022/08/31 03:54:07;;;;;;;4.50;0.60;;;;;;;;;;5062071;28;20052;-65
2022/08/31 03:56:34;;;;;;;1.58;0.77;;;;;;;;;;5056155;28;20118;-65
2022/08/31 03:59:02;;;;;;;0.47;0.45;;;;;;;;;;5055087;28;20419;-64
2022/08/31 04:01:30;;;;;;;0.75;0.50;;;;;;;;;;5057908;28;20045;-65
2022/08/31 04:03:57;;;;;;;4.32;0.50;;;;;;;;;;5053537;28;20055;-65
2022/08/31 04:06:24;;;;;;;2.15;0.68;;;;;;;;;;5056904;28;20052;-65
2022/08/31 04:08:51;;;;;;;1.17;0.50;;;;;;;;;;5052056;28;20062;-65
2022/08/31 04:11:19;;;;;;;5.88;0.70;;;;;;;;;;5064029;28;20055;-65
2022/08/31 04:13:46;;;;;;;0.82;0.40;;;;;;;;;;5058757;28;20187;-65
2022/08/31 04:16:17;;;;;;;3.05;0.60;;;;;;;;;;5056467;28;20056;-65
2022/08/31 04:18:45;;;;;;;1.95;0.70;;;;;;;;;;5055177;28;20040;-65
2022/08/31 04:21:12;;;;;;;1.23;0.68;;;;;;;;;;5059040;28;20113;-65
2022/08/31 04:23:40;;;;;;;0.82;0.60;;;;;;;;;;5063474;28;20109;-65
2022/08/31 04:26:09;;;;;;;1.05;0.65;;;;;;;;;;5058084;28;20049;-65
2022/08/31 04:28:37;;;;;;;1.50;0.65;;;;;;;;;;5057070;28;20056;-64
2022/08/31 04:31:08;;;;;;;1.63;0.70;;;;;;;;;;5053949;28;20048;-65
2022/08/31 04:33:37;;;;;;;2.15;0.60;;;;;;;;;;5056237;28;20124;-65
2022/08/31 04:36:07;;;;;;;1.00;0.70;;;;;;;;;;5061410;28;20127;-65
2022/08/31 04:38:35;;;;;;;0.93;0.70;;;;;;;;;;5039379;28;20052;-65
2022/08/31 04:41:04;;;;;;;1.30;0.60;;;;;;;;;;5064912;28;20048;-65
2022/08/31 04:43:32;;;;;;;3.33;0.70;;;;;;;;;;5052893;28;20573;-65
2022/08/31 04:45:59;;;;;;;2.13;0.80;;;;;;;;;;5060362;28;20193;-65
2022/08/31 04:48:26;;;;;;;1.00;0.80;;;;;;;;;;5057054;28;20040;-65
2022/08/31 04:51:01;;;;;;;1.58;0.70;;;;;;;;;;5057372;28;20059;-65
2022/08/31 04:53:28;;;;;;;1.90;0.90;;;;;;;;;;5060906;28;20049;-65
2022/08/31 04:55:56;;;;;;;2.53;0.90;;;;;;;;;;5061787;28;20129;-64
2022/08/31 04:58:23;;;;;;;2.92;0.75;;;;;;;;;;5061429;28;20075;-65
2022/08/31 05:00:51;;;;;;;1.88;0.80;;;;;;;;;;5059659;28;20179;-64
2022/08/31 05:03:19;;;;;;;0.90;0.75;;;;;;;;;;5057759;28;20044;-65
2022/08/31 05:05:49;;;;;;;2.42;0.90;;;;;;;;;;5055578;28;20669;-65
2022/08/31 05:08:18;;;;;;;3.55;0.90;;;;;;;;;;5054447;28;20056;-64
2022/08/31 05:10:47;;;;;;;2.78;0.90;;;;;;;;;;5055857;28;20568;-65
2022/08/31 05:13:14;;;;;;;1.25;0.70;;;;;;;;;;5057789;28;20395;-65
2022/08/31 05:15:42;;;;;;;1.45;1.00;;;;;;;;;;5054375;28;20064;-64
2022/08/31 05:18:10;;;;;;;0.75;0.70;;;;;;;;;;5056494;28;20147;-65
2022/08/31 05:20:37;;;;;;;3.53;0.80;;;;;;;;;;5051825;28;20787;-65
2022/08/31 05:23:05;;;;;;;1.58;0.85;;;;;;;;;;5053039;28;20044;-65
2022/08/31 05:25:33;;;;;;;1.58;0.70;;;;;;;;;;5057844;28;20052;-64
2022/08/31 05:28:01;;;;;;;1.25;0.90;;;;;;;;;;5054574;28;20594;-65
2022/08/31 05:30:28;;;;;;;0.77;0.63;;;;;;;;;;5054788;28;20053;-63
2022/08/31 05:32:55;;;;;;;0.73;0.70;;;;;;;;;;5054242;28;20131;-62
2022/08/31 05:35:22;;;;;;;5.80;0.90;;;;;;;;;;5057247;28;20048;-63
2022/08/31 05:37:51;;;;;;;1.38;0.70;;;;;;;;;;5057156;28;20059;-62
2022/08/31 05:40:18;;;;;;;1.00;0.70;;;;;;;;;;5062405;28;20052;-62
2022/08/31 05:42:47;;;;;;;1.77;0.80;;;;;;;;;;5064799;28;20060;-62
2022/08/31 05:45:16;;;;;;;1.60;1.05;;;;;;;;;;5054708;28;20426;-63
2022/08/31 05:47:44;;;;;;;1.25;0.77;;;;;;;;;;5054206;28;20057;-63
2022/08/31 05:50:11;;;;;;;1.27;0.80;;;;;;;;;;5049407;28;20045;-63
2022/08/31 05:52:38;;;;;;;2.75;0.98;;;;;;;;;;5054237;28;20053;-63
2022/08/31 05:55:06;;;;;;;1.70;0.85;;;;;;;;;;5063446;28;20048;-62
2022/08/31 05:57:33;;;;;;;1.15;0.85;;;;;;;;;;5066422;28;20040;-63
2022/08/31 06:00:01;;;;;;;0.93;0.68;;;;;;;;;;5055998;28;20512;-63
2022/08/31 06:02:29;;;;;;;1.30;0.80;;;;;;;;;;5059621;28;20109;-63
2022/08/31 06:04:57;;;;;;;3.72;0.80;;;;;;;;;;5058596;28;20087;-64
2022/08/31 06:07:24;;;;;;;2.38;0.98;;;;;;;;;;5054721;28;20130;-63
2022/08/31 06:09:52;;;;;;;3.60;0.88;;;;;;;;;;5057503;28;20503;-63
2022/08/31 06:12:21;;;;;;;3.28;0.85;;;;;;;;;;5065816;28;20488;-63
2022/08/31 06:14:48;;;;;;;1.92;0.98;;;;;;;;;;5072313;28;20053;-63
2022/08/31 06:17:17;;;;;;;2.08;1.00;;;;;;;;;;5047084;28;20660;-63
2022/08/31 06:19:44;;;;;;;1.80;0.98;;;;;;;;;;5062988;28;20055;-62
2022/08/31 06:22:11;;;;;;;5.22;1.30;;;;;;;;;;5067271;28;20437;-63
2022/08/31 06:24:39;;;;;;;3.28;0.90;;;;;;;;;;5064228;28;20057;-64
2022/08/31 06:27:06;;;;;;;2.17;0.85;;;;;;;;;;5069148;28;20056;-63
2022/08/31 06:29:33;;;;;;;2.78;0.93;;;;;;;;;;5063604;28;20052;-63
2022/08/31 06:32:06;;;;;;;0.90;0.75;;;;;;;;;;5062333;28;20090;-63
2022/08/31 06:34:35;;;;;;;1.45;0.80;;;;;;;;;;5062905;28;20493;-64
2022/08/31 06:37:03;;;;;;;3.72;0.75;;;;;;;;;;5068426;28;20060;-62
2022/08/31 06:39:30;;;;;;;1.63;0.90;;;;;;;;;;5064075;28;20049;-63
2022/08/31 06:41:58;;;;;;;3.28;1.25;;;;;;;;;;5063736;28;20049;-64
2022/08/31 06:44:26;;;;;;;1.92;0.90;;;;;;;;;;5047158;28;20147;-63
2022/08/31 06:46:54;;;;;;;3.10;1.10;;;;;;;;;;5068373;28;20044;-63
2022/08/31 06:49:21;;;;;;;1.17;0.82;;;;;;;;;;5044292;28;20486;-63
2022/08/31 06:51:50;;;;;;;2.17;1.00;;;;;;;;;;5060851;28;20060;-63
2022/08/31 06:54:19;;;;;;;2.17;0.90;;;;;;;;;;5062210;28;20071;-63
2022/08/31 06:56:46;;;;;;;1.77;1.00;;;;;;;;;;5062733;28;20064;-63
2022/08/31 06:59:13;;;;;;;3.05;1.00;;;;;;;;;;5057529;28;20053;-63
2022/08/31 07:01:40;;;;;;;3.42;0.93;;;;;;;;;;5054097;28;20144;-63
2022/08/31 07:04:09;;;;;;;4.25;1.00;;;;;;;;;;5062526;28;20053;-63
2022/08/31 07:06:37;;;;;;;2.45;1.05;;;;;;;;;;5060816;28;20483;-63
2022/08/31 07:09:07;;;;;;;4.05;0.95;;;;;;;;;;5055446;28;20044;-62
2022/08/31 07:11:35;;;;;;;1.20;0.70;;;;;;;;;;5062196;28;21320;-63
2022/08/31 07:14:03;;;;;;;2.35;0.93;;;;;;;;;;5058850;28;20059;-64
2022/08/31 07:16:31;;;;;;;5.85;0.80;;;;;;;;;;5043301;28;20059;-63
2022/08/31 07:18:59;;;;;;;3.38;1.02;;;;;;;;;;5059308;28;21762;-63
2022/08/31 07:21:28;;;;;;;2.60;1.00;;;;;;;;;;5044459;28;20488;-63
2022/08/31 07:23:57;;;;;;;2.38;0.80;;;;;;;;;;5039425;28;20048;-62
2022/08/31 07:26:27;;;;;;;3.28;0.80;;;;;;;;;;5060020;28;20495;-63
2022/08/31 07:28:55;;;;;;;5.18;0.90;;;;;;;;;;5038183;28;20068;-63
2022/08/31 07:31:23;;;;;;;4.50;0.88;;;;;;;;;;5054006;28;20037;-63
2022/08/31 07:33:50;;;;;;;0.73;0.55;;;;;;;;;;5060646;28;20048;-62
2022/08/31 07:36:17;;;;;;;2.47;0.93;;;;;;;;;;5056141;28;20099;-63
2022/08/31 07:44:17;;;;;;;1.77;0.70;;;;;;;;;;5066719;28;20071;-63
2022/08/31 07:46:44;;;;;;;1.83;0.57;;;;;;;;;;5059991;28;20131;-63
2022/08/31 07:49:12;;;;;;;1.85;0.77;;;;;;;;;;5061520;28;20048;-63
2022/08/31 07:51:44;;;;;;;1.92;0.90;;;;;;;;;;5060753;28;20135;-63
2022/08/31 07:54:13;;;;;;;3.00;0.73;;;;;;;;;;5062878;28;20072;-63
2022/08/31 07:56:42;;;;;;;1.30;0.73;;;;;;;;;;5053388;28;20141;-63
2022/08/31 07:59:09;;;;;;;3.45;0.60;;;;;;;;;;5058536;28;20061;-64
2022/08/31 08:01:40;;;;;;;0.90;0.47;;;;;;;;;;5057046;28;20080;-64
2022/08/31 08:04:07;;;;;;;5.68;0.70;;;;;;;;;;5045312;28;20147;-63
2022/08/31 08:06:34;;;;;;;2.47;0.68;;;;;;;;;;5053399;28;20057;-64
2022/08/31 08:09:05;;;;;;;2.85;0.70;;;;;;;;;;5057277;28;20103;-63
2022/08/31 08:11:34;;;;;;;2.38;0.65;;;;;;;;;;5040862;28;20048;-63
2022/08/31 08:14:03;;;;;;;5.38;0.75;;;;;;;;;;5059815;28;20061;-63
2022/08/31 08:16:30;;;;;;;4.93;0.68;;;;;;;;;;5037121;28;20087;-63
2022/08/31 08:18:57;;;;;;;1.25;0.70;;;;;;;;;;5057029;28;20533;-64
2022/08/31 08:21:25;;;;;;;1.55;0.52;;;;;;;;;;5055107;28;20110;-64
2022/08/31 08:23:52;;;;;;;0.93;0.60;;;;;;;;;;5053722;28;20055;-63
2022/08/31 08:26:19;;;;;;;1.08;0.52;;;;;;;;;;5048710;28;20056;-63
2022/08/31 08:28:46;;;;;;;6.28;0.60;;;;;;;;;;5058551;28;20614;-65
2022/08/31 08:31:16;;;;;;;2.53;0.65;;;;;;;;;;5058290;28;20048;-64
2022/08/31 08:33:44;;;;;;;1.20;0.50;;;;;;;;;;5061576;28;20063;-63
2022/08/31 08:36:16;;;;;;;1.30;0.60;;;;;;;;;;5066571;28;20048;-63
2022/08/31 08:38:46;;;;;;;5.28;0.60;;;;;;;;;;5064415;28;20052;-64
2022/08/31 08:41:14;;;;;;;1.15;0.50;;;;;;;;;;5046363;28;20060;-63
2022/08/31 08:43:42;;;;;;;0.88;0.50;;;;;;;;;;5062927;28;20048;-64
2022/08/31 08:46:10;;;;;;;0.82;0.32;;;;;;;;;;5061818;28;20136;-62
2022/08/31 08:48:40;;;;;;;1.10;0.60;;;;;;;;;;5064330;28;20048;-63
2022/08/31 08:51:12;;;;;;;0.98;0.50;;;;;;;;;;5064524;28;20647;-63
2022/08/31 08:53:41;;;;;;;6.60;1.10;;;;;;;;;;5060230;28;20056;-63
2022/08/31 08:56:10;;;;;;;12.48;2.05;;;;;;;;;;5063399;28;20095;-64
2022/08/31 08:58:38;;;;;;;2.17;0.88;;;;;;;;;;5069123;28;20379;-64
2022/08/31 09:01:10;;;;;;;1.35;0.60;;;;;;;;;;5069693;28;20060;-64
2022/08/31 09:03:47;;;;;;;4.82;0.60;;;;;;;;;;5065491;28;20052;-63
2022/08/31 09:06:16;;;;;;;0.85;0.65;;;;;;;;;;5055743;28;20530;-63
2022/08/31 09:08:58;;;;;;;2.45;0.60;;;;;;;;;;5065557;28;20751;-64
2022/08/31 09:11:34;;;;;;;2.35;0.65;;;;;;;;;;5072403;28;20410;-63
2022/08/31 09:14:08;;;;;;;1.70;0.63;;;;;;;;;;5064543;28;20053;-63
2022/08/31 09:16:39;;;;;;;6.78;0.88;;;;;;;;;;5067622;28;20056;-63
2022/08/31 09:19:11;;;;;;;3.33;0.73;;;;;;;;;;5068248;28;20071;-63
2022/08/31 09:21:40;;;;;;;4.53;0.60;;;;;;;;;;5060252;28;20139;-64
2022/08/31 09:24:08;;;;;;;3.35;0.77;;;;;;;;;;5039744;28;20591;-64
2022/08/31 09:26:47;;;;;;;2.70;0.50;;;;;;;;;;5049886;28;20136;-64
2022/08/31 09:29:20;;;;;;;2.05;0.70;;;;;;;;;;5039410;28;20519;-64
2022/08/31 09:31:47;;;;;;;3.13;0.68;;;;;;;;;;5061862;28;20056;-64
2022/08/31 09:34:28;;;;;;;2.58;0.65;;;;;;;;;;5061237;28;20060;-64
2022/08/31 09:37:15;;;;;;;1.45;0.60;;;;;;;;;;5058364;28;20545;-64
2022/08/31 09:39:46;;;;;;;4.57;0.60;;;;;;;;;;5059182;28;20444;-64
2022/08/31 09:42:15;;;;;;;2.45;0.60;;;;;;;;;;5062225;28;20495;-64
2022/08/31 09:44:43;;;;;;;0.90;0.57;;;;;;;;;;5053998;28;20041;-64
2022/08/31 09:47:18;;;;;;;3.45;0.60;;;;;;;;;;5061050;28;20048;-65
2022/08/31 09:49:54;;;;;;;1.80;0.50;;;;;;;;;;5038564;28;20598;-64
2022/08/31 09:55:12;;;;;;;1.55;0.55;;;;;;;;;;5061489;28;20036;-64
2022/08/31 09:55:20;;;;;;;0.85;0.50;;;;;;;;;;5057064;28;20060;-64
2022/08/31 09:57:51;;;;;;;4.57;0.73;;;;;;;;;;5059121;28;20052;-64
2022/08/31 10:00:30;;;;;;;0.85;0.50;;;;;;;;;;5065881;28;20136;-64
2022/08/31 10:02:58;;;;;;;0.85;0.52;;;;;;;;;;5061028;28;20110;-64
2022/08/31 10:05:39;;;;;;;3.78;0.98;;;;;;;;;;5068682;28;20056;-63
2022/08/31 10:08:12;;;;;;;2.30;0.70;;;;;;;;;;5071217;28;20052;-64
2022/08/31 10:10:42;;;;;;;3.05;0.55;;;;;;;;;;5071632;28;20522;-65
2022/08/31 10:13:13;;;;;;;1.20;0.63;;;;;;;;;;5066576;28;20048;-65
2022/08/31 10:15:45;;;;;;;3.72;0.70;;;;;;;;;;5068568;28;20044;-64
2022/08/31 10:18:15;;;;;;;1.25;0.52;;;;;;;;;;5068892;28;20047;-64
2022/08/31 10:20:47;;;;;;;1.58;1.13;;;;;;;;;;5052255;28;20063;-63
2022/08/31 10:23:19;;;;;;;1.50;0.60;;;;;;;;;;5069265;28;20040;-64
2022/08/31 10:25:51;;;;;;;2.03;0.50;;;;;;;;;;5059497;28;20049;-64
2022/08/31 10:28:27;;;;;;;4.00;0.63;;;;;;;;;;5066192;28;20052;-63
2022/08/31 10:30:58;;;;;;;2.22;0.60;;;;;;;;;;5055397;28;20056;-64
2022/08/31 10:35:01;;;;;;;0.75;0.50;;;;;;;;;;5067657;28;20126;-64
2022/08/31 10:36:16;;;;;;;2.75;0.60;;;;;;;;;;5065862;28;20061;-64
2022/08/31 10:38:46;;;;;;;4.18;0.50;;;;;;;;;;5071779;28;20052;-64
2022/08/31 10:41:14;;;;;;;0.73;0.40;;;;;;;;;;5065733;28;20546;-63
2022/08/31 10:43:44;;;;;;;2.13;0.60;;;;;;;;;;5068916;28;20636;-64
2022/08/31 10:46:12;;;;;;;1.10;0.60;;;;;;;;;;5065691;28;20170;-64
2022/08/31 10:48:42;;;;;;;4.38;0.60;;;;;;;;;;5070545;28;20473;-64
2022/08/31 10:51:19;;;;;;;0.88;0.50;;;;;;;;;;5071306;28;20694;-64
2022/08/31 10:53:56;;;;;;;1.95;0.75;;;;;;;;;;5065836;28;20049;-63
2022/08/31 10:56:31;;;;;;;3.92;0.60;;;;;;;;;;5072978;28;20047;-64
2022/08/31 10:59:03;;;;;;;1.75;0.75;;;;;;;;;;5067483;28;20132;-65
2022/08/31 11:01:35;;;;;;;1.47;0.70;;;;;;;;;;5050595;28;20044;-63
2022/08/31 11:04:27;;;;;;;0.80;0.57;;;;;;;;;;5059926;28;20041;-63
2022/08/31 11:06:58;;;;;;;0.95;0.70;;;;;;;;;;5029618;28;20060;-64
2022/08/31 11:09:32;;;;;;;0.93;0.60;;;;;;;;;;5062203;28;20102;-64
2022/08/31 11:12:05;;;;;;;1.70;0.60;;;;;;;;;;5067359;28;20250;-64
2022/08/31 11:14:49;;;;;;;4.18;0.63;;;;;;;;;;5070177;28;20044;-64
2022/08/31 11:17:38;;;;;;;4.32;0.75;;;;;;;;;;5071876;28;20060;-64
2022/08/31 11:20:18;;;;;;;1.98;0.57;;;;;;;;;;5060729;28;20048;-63
2022/08/31 11:23:12;;;;;;;3.67;0.50;;;;;;;;;;5063852;28;20048;-64
2022/08/31 11:26:00;;;;;;;4.38;0.60;;;;;;;;;;5017260;28;20103;-63
2022/08/31 11:28:32;;;;;;;3.90;0.60;;;;;;;;;;5060044;28;20110;-63
2022/08/31 11:31:01;;;;;;;1.98;0.70;;;;;;;;;;5054882;28;20136;-64
2022/08/31 11:33:30;;;;;;;2.13;0.70;;;;;;;;;;5065767;28;20052;-65
2022/08/31 11:36:04;;;;;;;1.02;0.50;;;;;;;;;;5065973;28;20052;-63
2022/08/31 11:38:47;;;;;;;1.48;0.63;;;;;;;;;;5047855;28;20048;-63
2022/08/31 11:41:29;;;;;;;1.38;0.45;;;;;;;;;;5064490;28;20056;-65
2022/08/31 11:44:03;;;;;;;2.78;0.68;;;;;;;;;;5065498;28;20048;-65
2022/08/31 11:46:58;;;;;;;1.17;0.70;;;;;;;;;;5047963;28;20155;-64
2022/08/31 11:49:36;;;;;;;2.85;0.57;;;;;;;;;;5046954;28;20059;-65
2022/08/31 11:52:09;;;;;;;1.27;0.63;;;;;;;;;;5063300;28;20460;-66
2022/08/31 11:55:06;;;;;;;1.80;0.98;;;;;;;;;;5069894;28;20051;-65
2022/08/31 11:58:00;;;;;;;3.55;0.70;;;;;;;;;;5016393;28;20048;-65
2022/08/31 12:00:41;;;;;;;2.97;0.88;;;;;;;;;;5065164;28;20499;-66
2022/08/31 12:03:09;;;;;;;3.15;0.90;;;;;;;;;;5065504;28;20493;-65
2022/08/31 12:05:56;;;;;;;6.65;0.93;;;;;;;;;;5072452;28;20048;-65
2022/08/31 12:08:25;;;;;;;1.00;0.70;;;;;;;;;;5064436;28;20075;-65
2022/08/31 12:10:55;;;;;;;1.67;0.80;;;;;;;;;;5075630;28;20094;-65
2022/08/31 12:13:34;;;;;;;1.77;0.90;;;;;;;;;;5051945;28;20036;-64
2022/08/31 12:16:16;;;;;;;2.65;0.80;;;;;;;;;;5059106;28;20060;-65
2022/08/31 12:18:53;;;;;;;8.60;1.00;;;;;;;;;;5057676;28;20804;-66
2022/08/31 12:24:15;;;;;;;2.50;0.90;;;;;;;;;;5071595;28;20043;-66
2022/08/31 12:26:57;;;;;;;3.88;1.10;;;;;;;;;;5062526;28;20052;-65
2022/08/31 12:29:27;;;;;;;2.15;1.00;;;;;;;;;;5066206;28;20052;-66
2022/08/31 12:32:18;;;;;;;1.30;0.90;;;;;;;;;;5044196;28;20044;-65
2022/08/31 12:34:50;;;;;;;1.85;1.05;;;;;;;;;;5056060;28;20051;-65
2022/08/31 12:37:22;;;;;;;2.47;0.98;;;;;;;;;;5075049;28;20043;-66
2022/08/31 12:39:49;;;;;;;3.40;1.05;;;;;;;;;;5065587;28;20052;-66
2022/08/31 12:42:17;;;;;;;2.20;1.00;;;;;;;;;;5063341;28;20114;-65
2022/08/31 12:44:49;;;;;;;2.20;1.10;;;;;;;;;;5065375;28;20053;-66
2022/08/31 12:47:21;;;;;;;2.55;1.10;;;;;;;;;;5051902;28;20060;-65
2022/08/31 12:49:56;;;;;;;2.13;0.98;;;;;;;;;;5072243;28;20079;-65
2022/08/31 12:52:28;;;;;;;2.40;0.90;;;;;;;;;;5065904;28;20044;-66
2022/08/31 12:55:11;;;;;;;4.53;1.35;;;;;;;;;;5070159;28;20673;-65
2022/08/31 12:57:49;;;;;;;6.60;1.30;;;;;;;;;;5057775;28;20529;-66
2022/08/31 13:00:20;;;;;;;1.83;1.00;;;;;;;;;;5069145;28;20048;-66
2022/08/31 13:02:48;;;;;;;2.35;1.20;;;;;;;;;;5065252;28;20048;-65
2022/08/31 13:05:22;;;;;;;5.53;1.20;;;;;;;;;;5069057;28;20094;-65
2022/08/31 13:07:50;;;;;;;2.17;1.10;;;;;;;;;;5076685;28;20419;-66
2022/08/31 13:10:26;;;;;;;2.05;1.10;;;;;;;;;;5075651;28;20506;-65
2022/08/31 13:12:54;;;;;;;2.95;1.00;;;;;;;;;;5073559;28;20059;-65
2022/08/31 13:15:22;;;;;;;2.08;1.00;;;;;;;;;;5067066;28;20052;-66
2022/08/31 13:17:49;;;;;;;6.18;1.20;;;;;;;;;;5045324;28;20075;-66
2022/08/31 13:20:18;;;;;;;4.63;1.30;;;;;;;;;;5064658;28;20446;-66
2022/08/31 13:22:55;;;;;;;3.20;1.30;;;;;;;;;;5065528;28;20128;-66
2022/08/31 13:25:34;;;;;;;3.40;1.33;;;;;;;;;;5067984;28;20059;-65
2022/08/31 13:28:02;;;;;;;2.80;1.20;;;;;;;;;;5062561;28;20052;-66
2022/08/31 13:30:37;;;;;;;4.18;1.30;;;;;;;;;;5067308;28;20490;-66
2022/08/31 13:33:20;;;;;;;4.45;1.25;;;;;;;;;;5065868;28;20458;-66
2022/08/31 13:35:49;;;;;;;5.60;1.73;;;;;;;;;;5067880;28;20048;-65
2022/08/31 13:38:38;;;;;;;5.13;1.40;;;;;;;;;;5052588;28;20182;-65
2022/08/31 13:41:06;;;;;;;2.92;1.15;;;;;;;;;;5062446;28;20105;-65
2022/08/31 13:43:33;;;;;;;3.28;1.20;;;;;;;;;;5065770;28;20098;-65
2022/08/31 13:46:01;;;;;;;3.92;1.30;;;;;;;;;;5050040;28;20056;-66
2022/08/31 13:48:30;;;;;;;2.85;1.35;;;;;;;;;;5068427;28;20152;-66
2022/08/31 13:51:00;;;;;;;2.63;1.10;;;;;;;;;;5071971;28;20749;-66
2022/08/31 13:53:38;;;;;;;3.30;1.30;;;;;;;;;;5069793;28;20594;-65
2022/08/31 13:56:53;;;;;;;3.70;1.45;;;;;;;;;;5067971;28;20052;-66
2022/08/31 13:59:16;;;;;;;1.50;1.08;;;;;;;;;;5053415;28;20056;-66
2022/08/31 14:01:47;;;;;;;1.38;1.20;;;;;;;;;;5070139;28;20410;-65
2022/08/31 14:04:42;;;;;;;3.35;1.33;;;;;;;;;;5061881;28;20561;-66
2022/08/31 14:07:15;;;;;;;3.90;1.50;;;;;;;;;;5069019;28;20548;-65
2022/08/31 14:09:45;;;;;;;2.42;1.20;;;;;;;;;;5066432;28;20059;-66
2022/08/31 14:12:28;;;;;;;2.20;1.42;;;;;;;;;;5065698;28;20044;-66
2022/08/31 14:14:58;;;;;;;2.60;1.30;;;;;;;;;;5065006;28;20048;-67
2022/08/31 14:17:25;;;;;;;5.15;1.58;;;;;;;;;;5069872;28;20384;-66
2022/08/31 14:19:53;;;;;;;3.83;1.30;;;;;;;;;;5060919;28;20049;-66
2022/08/31 14:22:27;;;;;;;1.98;1.17;;;;;;;;;;5065308;28;20045;-66
2022/08/31 14:24:59;;;;;;;4.75;1.30;;;;;;;;;;5061868;28;20759;-66
2022/08/31 14:27:27;;;;;;;3.78;1.30;;;;;;;;;;5066948;28;20127;-65
2022/08/31 14:29:54;;;;;;;3.05;1.60;;;;;;;;;;5065400;28;20060;-66
2022/08/31 14:32:22;;;;;;;3.30;1.20;;;;;;;;;;5061372;28;20049;-66
2022/08/31 14:34:49;;;;;;;7.80;1.30;;;;;;;;;;5065927;28;20446;-65
2022/08/31 14:37:21;;;;;;;4.32;1.23;;;;;;;;;;5046199;28;20068;-66
2022/08/31 14:39:50;;;;;;;3.38;1.40;;;;;;;;;;5065695;28;20133;-66
2022/08/31 14:42:19;;;;;;;8.63;1.52;;;;;;;;;;5050596;28;20087;-66
2022/08/31 14:44:55;;;;;;;4.00;1.42;;;;;;;;;;5049183;28;20052;-66
2022/08/31 14:47:22;;;;;;;3.53;1.48;;;;;;;;;;5070345;28;20056;-65
2022/08/31 14:49:50;;;;;;;3.22;1.27;;;;;;;;;;5053037;28;20440;-65
2022/08/31 14:52:17;;;;;;;3.53;1.55;;;;;;;;;;5069936;28;20070;-66
2022/08/31 14:54:46;;;;;;;3.65;1.30;;;;;;;;;;5062009;28;20048;-65
2022/08/31 14:57:14;;;;;;;6.43;1.40;;;;;;;;;;5070882;28;20052;-65
2022/08/31 14:59:45;;;;;;;4.55;1.40;;;;;;;;;;5068579;28;20063;-65
2022/08/31 15:02:15;;;;;;;2.50;1.20;;;;;;;;;;5065711;28;20045;-65
2022/08/31 15:04:42;;;;;;;3.50;1.10;;;;;;;;;;5067414;28;20052;-65
2022/08/31 15:07:09;;;;;;;3.88;1.40;;;;;;;;;;5066326;28;20056;-65
2022/08/31 15:09:41;;;;;;;2.25;1.30;;;;;;;;;;5069326;28;20044;-65
2022/08/31 15:12:10;;;;;;;2.92;1.25;;;;;;;;;;5063668;28;20052;-65
2022/08/31 15:14:38;;;;;;;3.78;1.20;;;;;;;;;;5057914;28;20048;-65